Time;durP1;ratioP1;P1;durP2;ratioP2;P2;SDS_P1;SDS_P2;PMS_P1;PMS_P2;Temp;Humidity;BMP_temperature;BMP_pressure;BME280_temperature;BME280_humidity;BME280_pressure;Samples;Min_cycle;Max_cycle;Signal;HPM_P1;HPM_P2
2022/08/28 00:01:32;;;;;;;6.60;3.70;;;;;;;;;;4941993;29;20228;-73
2022/08/28 00:03:59;;;;;;;9.13;4.00;;;;;;;;;;4941717;28;20207;-72
2022/08/28 00:06:27;;;;;;;7.03;3.73;;;;;;;;;;4945787;29;20221;-72
2022/08/28 00:08:54;;;;;;;5.80;3.97;;;;;;;;;;4944898;29;20291;-73
2022/08/28 00:11:22;;;;;;;8.60;4.07;;;;;;;;;;4943092;28;20245;-73
2022/08/28 00:13:51;;;;;;;6.93;3.70;;;;;;;;;;4946287;29;20741;-73
2022/08/28 00:16:18;;;;;;;8.77;3.90;;;;;;;;;;4944445;28;20206;-73
2022/08/28 00:18:45;;;;;;;6.20;3.53;;;;;;;;;;4945091;29;20258;-73
2022/08/28 00:21:13;;;;;;;6.63;3.80;;;;;;;;;;4944547;28;20228;-73
2022/08/28 00:23:41;;;;;;;6.40;3.70;;;;;;;;;;4944554;29;20214;-73
2022/08/28 00:26:08;;;;;;;7.67;3.60;;;;;;;;;;4944654;29;20210;-73
2022/08/28 00:28:35;;;;;;;8.93;3.93;;;;;;;;;;4946029;29;20290;-73
2022/08/28 00:31:03;;;;;;;7.37;3.90;;;;;;;;;;4946464;28;20669;-73
2022/08/28 00:33:32;;;;;;;10.07;3.93;;;;;;;;;;4943595;29;20258;-73
2022/08/28 00:36:01;;;;;;;5.33;3.40;;;;;;;;;;4945789;29;20254;-73
2022/08/28 00:38:28;;;;;;;6.03;4.07;;;;;;;;;;4948180;28;20210;-73
2022/08/28 00:40:58;;;;;;;7.37;3.67;;;;;;;;;;4945339;29;20229;-73
2022/08/28 00:43:33;;;;;;;6.53;3.63;;;;;;;;;;4945140;29;20222;-73
2022/08/28 00:46:01;;;;;;;10.13;3.97;;;;;;;;;;4944275;29;20209;-73
2022/08/28 00:48:29;;;;;;;8.73;4.00;;;;;;;;;;4944582;29;20286;-73
2022/08/28 00:53:42;;;;;;;8.50;4.47;;;;;;;;;;4947168;28;20213;-73
2022/08/28 00:56:11;;;;;;;7.80;4.30;;;;;;;;;;4947802;29;20207;-73
2022/08/28 00:58:39;;;;;;;7.23;4.10;;;;;;;;;;4945223;29;20233;-72
2022/08/28 01:01:06;;;;;;;11.60;3.70;;;;;;;;;;4942266;28;20230;-73
2022/08/28 01:03:36;;;;;;;6.97;3.70;;;;;;;;;;4947023;29;20206;-73
2022/08/28 01:06:03;;;;;;;5.30;3.50;;;;;;;;;;4945005;29;20214;-73
2022/08/28 01:08:30;;;;;;;9.27;4.03;;;;;;;;;;4945025;29;20667;-73
2022/08/28 01:10:58;;;;;;;6.50;3.97;;;;;;;;;;4947426;28;20234;-73
2022/08/28 01:13:26;;;;;;;5.83;3.17;;;;;;;;;;4948322;29;20210;-72
2022/08/28 01:15:54;;;;;;;9.17;3.97;;;;;;;;;;4946135;28;20214;-73
2022/08/28 01:18:21;;;;;;;8.30;3.73;;;;;;;;;;4948303;29;20597;-73
2022/08/28 01:20:54;;;;;;;6.20;3.20;;;;;;;;;;4948608;28;20245;-73
2022/08/28 01:23:25;;;;;;;7.70;3.80;;;;;;;;;;4946108;29;20198;-72
2022/08/28 01:25:54;;;;;;;9.13;3.90;;;;;;;;;;4947342;29;20567;-73
2022/08/28 01:28:21;;;;;;;8.67;3.90;;;;;;;;;;4949232;29;20195;-73
2022/08/28 01:30:49;;;;;;;6.53;3.80;;;;;;;;;;4947360;29;20715;-73
2022/08/28 01:33:16;;;;;;;8.83;4.20;;;;;;;;;;4946641;28;20206;-73
2022/08/28 01:35:46;;;;;;;6.50;3.67;;;;;;;;;;4949212;28;20303;-73
2022/08/28 01:38:13;;;;;;;5.60;3.43;;;;;;;;;;4949466;28;20289;-73
2022/08/28 01:40:41;;;;;;;7.60;4.37;;;;;;;;;;4947698;28;20721;-72
2022/08/28 01:43:12;;;;;;;9.40;3.80;;;;;;;;;;4950420;29;20696;-72
2022/08/28 01:45:40;;;;;;;6.40;3.77;;;;;;;;;;4947663;28;20269;-72
2022/08/28 01:48:08;;;;;;;9.10;3.77;;;;;;;;;;4948907;29;20206;-73
2022/08/28 01:50:35;;;;;;;9.00;4.07;;;;;;;;;;4950160;28;20241;-72
2022/08/28 01:53:03;;;;;;;8.90;3.83;;;;;;;;;;4948042;28;20237;-72
2022/08/28 01:55:31;;;;;;;6.07;3.80;;;;;;;;;;4946954;29;20211;-72
2022/08/28 01:57:59;;;;;;;6.57;3.70;;;;;;;;;;4948132;28;20211;-73
2022/08/28 02:00:28;;;;;;;11.07;3.63;;;;;;;;;;4947946;29;20226;-72
2022/08/28 02:02:56;;;;;;;8.47;4.10;;;;;;;;;;4950134;28;20253;-72
2022/08/28 02:05:24;;;;;;;14.10;3.93;;;;;;;;;;4947245;29;20206;-71
2022/08/28 02:07:51;;;;;;;9.40;4.27;;;;;;;;;;4947452;29;20211;-72
2022/08/28 02:10:18;;;;;;;8.30;4.30;;;;;;;;;;4948486;28;20226;-73
2022/08/28 02:12:47;;;;;;;8.37;4.13;;;;;;;;;;4951636;29;20571;-71
2022/08/28 02:15:15;;;;;;;9.70;3.93;;;;;;;;;;4948701;29;20270;-72
2022/08/28 02:17:43;;;;;;;12.47;4.40;;;;;;;;;;4944641;29;20233;-72
2022/08/28 02:20:11;;;;;;;13.30;3.93;;;;;;;;;;4944407;28;20230;-72
2022/08/28 02:22:38;;;;;;;6.77;4.00;;;;;;;;;;4945672;29;20498;-72
2022/08/28 02:25:06;;;;;;;6.87;3.80;;;;;;;;;;4945688;28;20209;-72
2022/08/28 02:27:33;;;;;;;8.30;3.53;;;;;;;;;;4948034;28;20221;-73
2022/08/28 02:30:00;;;;;;;7.77;4.60;;;;;;;;;;4938664;28;20230;-71
2022/08/28 02:32:28;;;;;;;6.60;3.53;;;;;;;;;;4937243;28;20214;-72
2022/08/28 02:34:57;;;;;;;8.43;4.50;;;;;;;;;;4942395;28;20214;-72
2022/08/28 02:37:24;;;;;;;6.60;4.03;;;;;;;;;;4950829;28;20210;-72
2022/08/28 02:39:52;;;;;;;12.03;4.30;;;;;;;;;;4945969;28;20726;-72
2022/08/28 02:42:19;;;;;;;7.80;4.30;;;;;;;;;;4947954;29;20301;-72
2022/08/28 02:44:46;;;;;;;9.93;4.07;;;;;;;;;;4944628;28;20237;-72
2022/08/28 02:47:13;;;;;;;9.33;4.00;;;;;;;;;;4948532;29;20746;-72
2022/08/28 02:49:41;;;;;;;11.43;4.30;;;;;;;;;;4948872;28;20206;-72
2022/08/28 02:52:09;;;;;;;7.80;3.93;;;;;;;;;;4946539;29;20707;-72
2022/08/28 02:54:38;;;;;;;5.73;3.50;;;;;;;;;;4945964;29;20206;-72
2022/08/28 02:57:06;;;;;;;8.27;3.70;;;;;;;;;;4945234;28;20210;-72
2022/08/28 02:59:33;;;;;;;5.67;3.80;;;;;;;;;;4946026;28;20613;-72
2022/08/28 03:02:03;;;;;;;8.67;4.47;;;;;;;;;;4944538;29;20225;-72
2022/08/28 03:04:31;;;;;;;9.10;4.07;;;;;;;;;;4946442;29;20202;-72
2022/08/28 03:06:58;;;;;;;6.90;4.10;;;;;;;;;;4946592;29;20237;-72
2022/08/28 03:09:27;;;;;;;11.33;4.30;;;;;;;;;;4948361;28;20198;-72
2022/08/28 03:11:55;;;;;;;6.30;3.50;;;;;;;;;;4946984;28;20218;-72
2022/08/28 03:14:23;;;;;;;7.53;3.80;;;;;;;;;;4949204;29;20211;-72
2022/08/28 03:16:50;;;;;;;6.97;4.40;;;;;;;;;;4943544;28;20250;-72
2022/08/28 03:19:17;;;;;;;5.40;3.50;;;;;;;;;;4946932;29;20317;-72
2022/08/28 03:21:44;;;;;;;7.53;3.80;;;;;;;;;;4946389;29;20747;-72
2022/08/28 03:24:10;;;;;;;9.87;3.93;;;;;;;;;;4947038;28;20673;-72
2022/08/28 03:26:39;;;;;;;7.03;3.83;;;;;;;;;;4946920;29;20621;-72
2022/08/28 03:29:06;;;;;;;9.53;4.27;;;;;;;;;;4947355;29;20297;-72
2022/08/28 03:31:34;;;;;;;6.53;4.40;;;;;;;;;;4945842;29;20592;-72
2022/08/28 03:34:03;;;;;;;8.23;4.30;;;;;;;;;;4945318;29;20206;-72
2022/08/28 03:36:30;;;;;;;7.30;4.20;;;;;;;;;;4949296;29;20259;-72
2022/08/28 03:38:58;;;;;;;7.23;4.07;;;;;;;;;;4945271;28;20209;-72
2022/08/28 03:41:27;;;;;;;6.67;3.93;;;;;;;;;;4945026;28;20317;-72
2022/08/28 03:43:56;;;;;;;5.93;3.70;;;;;;;;;;4944010;28;20218;-73
2022/08/28 03:46:24;;;;;;;10.00;4.07;;;;;;;;;;4943853;29;20649;-72
2022/08/28 03:48:52;;;;;;;10.40;3.80;;;;;;;;;;4944004;29;20199;-72
2022/08/28 03:51:20;;;;;;;6.97;3.70;;;;;;;;;;4947305;28;20225;-72
2022/08/28 03:53:48;;;;;;;10.97;3.80;;;;;;;;;;4946218;28;20218;-72
2022/08/28 03:56:15;;;;;;;10.47;3.70;;;;;;;;;;4945874;29;20238;-72
2022/08/28 03:58:43;;;;;;;7.97;3.50;;;;;;;;;;4947844;28;20258;-72
2022/08/28 04:01:11;;;;;;;8.97;4.00;;;;;;;;;;4946328;28;20263;-73
2022/08/28 04:03:38;;;;;;;5.47;3.50;;;;;;;;;;4944382;29;20438;-71
2022/08/28 04:06:06;;;;;;;5.77;3.50;;;;;;;;;;4948165;28;20206;-72
2022/08/28 04:08:33;;;;;;;8.07;3.70;;;;;;;;;;4945503;29;20266;-72
2022/08/28 04:11:01;;;;;;;7.27;3.40;;;;;;;;;;4945527;28;20601;-72
2022/08/28 04:13:28;;;;;;;7.07;3.20;;;;;;;;;;4945198;29;20205;-73
2022/08/28 04:15:59;;;;;;;6.40;3.47;;;;;;;;;;4942345;28;20221;-72
2022/08/28 04:18:28;;;;;;;7.60;3.50;;;;;;;;;;4946363;28;20210;-72
2022/08/28 04:20:59;;;;;;;7.03;3.27;;;;;;;;;;4947480;28;20230;-73
2022/08/28 04:23:26;;;;;;;7.53;3.20;;;;;;;;;;4945449;28;20568;-73
2022/08/28 04:25:54;;;;;;;8.63;3.70;;;;;;;;;;4946302;28;20202;-71
2022/08/28 04:28:21;;;;;;;7.43;3.30;;;;;;;;;;4946076;29;20270;-72
2022/08/28 04:30:49;;;;;;;6.33;3.50;;;;;;;;;;4946589;29;20222;-71
2022/08/28 04:33:17;;;;;;;6.20;3.50;;;;;;;;;;4945153;29;20598;-72
2022/08/28 04:35:46;;;;;;;4.80;3.23;;;;;;;;;;4948549;29;20683;-73
2022/08/28 04:38:13;;;;;;;9.97;3.63;;;;;;;;;;4947744;28;20651;-72
2022/08/28 04:40:40;;;;;;;5.87;3.80;;;;;;;;;;4944944;28;20802;-72
2022/08/28 04:43:07;;;;;;;9.73;3.23;;;;;;;;;;4945625;29;20209;-72
2022/08/28 04:45:38;;;;;;;10.17;4.10;;;;;;;;;;4942539;28;20211;-72
2022/08/28 04:48:06;;;;;;;8.57;3.87;;;;;;;;;;4946173;29;20216;-72
2022/08/28 04:50:33;;;;;;;9.23;4.33;;;;;;;;;;4945879;28;20567;-72
2022/08/28 04:53:02;;;;;;;9.43;3.80;;;;;;;;;;4945580;29;20237;-71
2022/08/28 04:55:29;;;;;;;7.10;3.90;;;;;;;;;;4947759;29;20297;-72
2022/08/28 04:57:56;;;;;;;8.37;3.63;;;;;;;;;;4947870;28;20700;-72
2022/08/28 05:00:23;;;;;;;8.13;3.40;;;;;;;;;;4949624;28;20697;-72
2022/08/28 05:02:50;;;;;;;10.30;3.93;;;;;;;;;;4948155;29;20298;-71
2022/08/28 05:05:17;;;;;;;11.27;4.17;;;;;;;;;;4949222;28;20206;-72
2022/08/28 05:07:45;;;;;;;6.43;3.57;;;;;;;;;;4948190;29;20209;-72
2022/08/28 05:10:13;;;;;;;7.50;4.27;;;;;;;;;;4951134;28;20333;-72
2022/08/28 05:12:40;;;;;;;11.20;3.90;;;;;;;;;;4949233;29;20210;-72
2022/08/28 05:15:08;;;;;;;9.77;3.70;;;;;;;;;;4947715;29;20980;-72
2022/08/28 05:17:35;;;;;;;6.47;3.23;;;;;;;;;;4947518;29;20586;-72
2022/08/28 05:20:04;;;;;;;6.00;3.30;;;;;;;;;;4949117;28;20235;-72
2022/08/28 05:22:31;;;;;;;12.57;3.83;;;;;;;;;;4949792;29;20650;-72
2022/08/28 05:24:59;;;;;;;8.37;3.33;;;;;;;;;;4949010;28;20376;-71
2022/08/28 05:27:28;;;;;;;7.83;3.30;;;;;;;;;;4949510;29;20293;-72
2022/08/28 05:29:55;;;;;;;4.13;2.83;;;;;;;;;;4946895;29;20729;-72
2022/08/28 05:32:22;;;;;;;4.53;2.90;;;;;;;;;;4947899;28;20217;-73
2022/08/28 05:34:49;;;;;;;3.97;2.37;;;;;;;;;;4948319;29;20207;-72
2022/08/28 05:37:16;;;;;;;5.20;2.80;;;;;;;;;;4948572;29;20297;-72
2022/08/28 05:39:43;;;;;;;7.73;2.73;;;;;;;;;;4944840;28;20237;-72
2022/08/28 05:42:11;;;;;;;6.23;2.20;;;;;;;;;;4948344;29;20669;-73
2022/08/28 05:44:39;;;;;;;6.77;2.50;;;;;;;;;;4945039;29;20980;-72
2022/08/28 05:47:06;;;;;;;6.13;2.43;;;;;;;;;;4951049;29;20221;-72
2022/08/28 05:49:33;;;;;;;5.37;2.67;;;;;;;;;;4949597;28;20568;-72
2022/08/28 05:52:01;;;;;;;10.40;2.70;;;;;;;;;;4946724;28;20589;-72
2022/08/28 05:54:28;;;;;;;8.33;2.53;;;;;;;;;;4950860;29;20238;-73
2022/08/28 05:56:56;;;;;;;7.23;2.30;;;;;;;;;;4944303;28;20210;-73
2022/08/28 05:59:24;;;;;;;5.77;2.17;;;;;;;;;;4948922;28;20206;-72
2022/08/28 06:01:52;;;;;;;6.30;2.43;;;;;;;;;;4946849;28;20701;-73
2022/08/28 06:04:21;;;;;;;3.73;2.00;;;;;;;;;;4948542;28;20675;-72
2022/08/28 06:06:48;;;;;;;8.63;2.20;;;;;;;;;;4946065;28;20210;-73
2022/08/28 06:09:19;;;;;;;5.77;2.57;;;;;;;;;;4949340;29;20203;-73
2022/08/28 06:11:50;;;;;;;7.90;2.50;;;;;;;;;;4947808;28;20242;-73
2022/08/28 06:14:19;;;;;;;7.60;2.00;;;;;;;;;;4948373;29;20293;-73
2022/08/28 06:16:47;;;;;;;4.27;2.20;;;;;;;;;;4950362;28;20221;-73
2022/08/28 06:19:21;;;;;;;8.83;2.33;;;;;;;;;;4948651;28;20211;-73
2022/08/28 06:21:50;;;;;;;8.50;2.27;;;;;;;;;;4946916;28;20707;-73
2022/08/28 06:24:18;;;;;;;7.10;2.30;;;;;;;;;;4946583;29;20207;-73
2022/08/28 06:26:45;;;;;;;7.30;1.93;;;;;;;;;;4946663;29;20209;-74
2022/08/28 06:29:14;;;;;;;5.43;2.37;;;;;;;;;;4948496;29;20208;-73
2022/08/28 06:31:46;;;;;;;5.27;1.90;;;;;;;;;;4948807;28;20233;-73
2022/08/28 06:34:14;;;;;;;8.80;2.13;;;;;;;;;;4947917;28;20676;-73
2022/08/28 06:36:43;;;;;;;5.43;1.83;;;;;;;;;;4950796;28;20772;-74
2022/08/28 06:39:11;;;;;;;6.73;2.30;;;;;;;;;;4947070;29;20270;-74
2022/08/28 06:41:41;;;;;;;7.67;2.13;;;;;;;;;;4951467;28;20230;-74
2022/08/28 06:44:09;;;;;;;10.00;2.17;;;;;;;;;;4945783;28;20763;-74
2022/08/28 06:46:36;;;;;;;5.93;2.07;;;;;;;;;;4947812;28;20213;-74
2022/08/28 06:49:03;;;;;;;10.83;2.07;;;;;;;;;;4948310;29;20207;-74
2022/08/28 06:51:31;;;;;;;9.70;2.00;;;;;;;;;;4947490;28;20313;-74
2022/08/28 06:54:00;;;;;;;8.60;2.03;;;;;;;;;;4949206;29;20297;-73
2022/08/28 06:56:36;;;;;;;8.60;2.00;;;;;;;;;;4948208;29;20222;-74
2022/08/28 06:59:03;;;;;;;10.57;2.30;;;;;;;;;;4946724;28;20213;-73
2022/08/28 07:01:33;;;;;;;6.70;1.80;;;;;;;;;;4942412;28;20248;-74
2022/08/28 07:04:04;;;;;;;6.00;2.13;;;;;;;;;;4946575;29;20222;-73
2022/08/28 07:06:32;;;;;;;9.77;2.23;;;;;;;;;;4949897;29;20693;-74
2022/08/28 07:09:04;;;;;;;10.90;2.10;;;;;;;;;;4945529;29;20202;-73
2022/08/28 07:11:32;;;;;;;10.13;2.10;;;;;;;;;;4947585;28;20223;-74
2022/08/28 07:14:00;;;;;;;7.73;2.07;;;;;;;;;;4940288;29;20604;-73
2022/08/28 07:16:30;;;;;;;6.10;1.60;;;;;;;;;;4948168;28;20748;-74
2022/08/28 07:18:57;;;;;;;9.03;2.87;;;;;;;;;;4947306;28;20289;-74
2022/08/28 07:21:24;;;;;;;9.73;2.37;;;;;;;;;;4944546;28;20237;-74
2022/08/28 07:23:52;;;;;;;6.80;1.60;;;;;;;;;;4943804;29;20306;-73
2022/08/28 07:26:22;;;;;;;7.30;2.23;;;;;;;;;;4948400;29;20772;-72
2022/08/28 07:28:49;;;;;;;6.53;2.10;;;;;;;;;;4949273;29;20203;-72
2022/08/28 07:31:18;;;;;;;5.77;1.73;;;;;;;;;;4942393;28;20223;-74
2022/08/28 07:33:48;;;;;;;8.70;2.10;;;;;;;;;;4943970;28;20206;-73
2022/08/28 07:36:19;;;;;;;8.33;2.17;;;;;;;;;;4945895;28;20215;-74
2022/08/28 07:38:47;;;;;;;4.33;1.67;;;;;;;;;;4942693;28;20718;-74
2022/08/28 07:41:15;;;;;;;5.00;1.67;;;;;;;;;;4942294;28;20235;-74
2022/08/28 07:46:34;;;;;;;7.07;2.10;;;;;;;;;;4947619;28;20333;-74
2022/08/28 07:49:02;;;;;;;8.87;2.27;;;;;;;;;;4946024;29;20301;-74
2022/08/28 07:51:30;;;;;;;7.47;2.27;;;;;;;;;;4943344;28;20772;-73
2022/08/28 07:53:57;;;;;;;6.83;1.80;;;;;;;;;;4943752;28;20214;-73
2022/08/28 07:56:24;;;;;;;6.57;2.10;;;;;;;;;;4942952;28;20202;-73
2022/08/28 07:58:55;;;;;;;4.73;2.00;;;;;;;;;;4942343;28;20202;-73
2022/08/28 08:01:22;;;;;;;4.80;1.90;;;;;;;;;;4943292;28;20611;-73
2022/08/28 08:03:50;;;;;;;7.43;2.00;;;;;;;;;;4945611;28;20356;-73
2022/08/28 08:06:20;;;;;;;8.13;2.10;;;;;;;;;;4945002;28;20685;-72
2022/08/28 08:08:47;;;;;;;6.40;1.83;;;;;;;;;;4948908;28;20676;-73
2022/08/28 08:11:19;;;;;;;6.57;2.07;;;;;;;;;;4943361;28;20617;-73
2022/08/28 08:13:47;;;;;;;12.10;2.10;;;;;;;;;;4947642;28;20238;-73
2022/08/28 08:16:17;;;;;;;7.67;2.40;;;;;;;;;;4944962;28;20207;-72
2022/08/28 08:18:45;;;;;;;9.90;2.30;;;;;;;;;;4944570;28;20202;-73
2022/08/28 08:21:16;;;;;;;6.27;2.23;;;;;;;;;;4944533;28;20614;-72
2022/08/28 08:23:43;;;;;;;7.00;1.83;;;;;;;;;;4942346;28;20213;-72
2022/08/28 08:26:12;;;;;;;9.07;2.37;;;;;;;;;;4944507;28;20213;-73
2022/08/28 08:28:39;;;;;;;4.37;2.20;;;;;;;;;;4950143;28;20217;-72
2022/08/28 08:31:07;;;;;;;5.00;2.27;;;;;;;;;;4947504;28;20553;-72
2022/08/28 08:33:37;;;;;;;6.90;2.13;;;;;;;;;;4949804;28;20662;-73
2022/08/28 08:36:05;;;;;;;7.50;2.10;;;;;;;;;;4944953;28;20212;-72
2022/08/28 08:38:32;;;;;;;8.37;2.40;;;;;;;;;;4946234;28;20681;-73
2022/08/28 08:41:00;;;;;;;7.03;2.30;;;;;;;;;;4946172;28;20637;-74
2022/08/28 08:43:29;;;;;;;7.50;2.50;;;;;;;;;;4949121;28;20298;-73
2022/08/28 08:45:56;;;;;;;13.50;3.23;;;;;;;;;;4943727;28;20206;-73
2022/08/28 08:48:26;;;;;;;8.50;2.57;;;;;;;;;;4950984;28;20207;-73
2022/08/28 08:50:55;;;;;;;9.60;2.60;;;;;;;;;;4949486;28;20220;-73
2022/08/28 08:53:28;;;;;;;8.17;3.23;;;;;;;;;;4951333;28;20314;-72
2022/08/28 08:55:58;;;;;;;8.77;2.70;;;;;;;;;;4944206;28;20205;-73
2022/08/28 08:58:30;;;;;;;9.70;3.40;;;;;;;;;;4949115;28;20319;-72
2022/08/28 09:01:01;;;;;;;9.90;3.37;;;;;;;;;;4947819;28;20261;-73
2022/08/28 09:03:39;;;;;;;7.63;3.10;;;;;;;;;;4944636;28;20198;-73
2022/08/28 09:06:13;;;;;;;6.63;2.80;;;;;;;;;;4947555;28;20206;-73
2022/08/28 09:08:41;;;;;;;11.07;3.33;;;;;;;;;;4948231;28;20269;-72
2022/08/28 09:11:15;;;;;;;8.80;3.03;;;;;;;;;;4944829;28;20273;-72
2022/08/28 09:13:47;;;;;;;11.10;3.40;;;;;;;;;;4945208;28;20203;-72
2022/08/28 09:16:18;;;;;;;10.37;3.20;;;;;;;;;;4943594;28;20230;-73
2022/08/28 09:18:47;;;;;;;9.13;3.60;;;;;;;;;;4950013;28;20305;-73
2022/08/28 09:21:24;;;;;;;8.70;3.60;;;;;;;;;;4945770;28;20237;-73
2022/08/28 09:23:54;;;;;;;11.50;3.57;;;;;;;;;;4946338;28;20209;-72
2022/08/28 09:26:23;;;;;;;7.47;3.40;;;;;;;;;;4944811;28;20607;-72
2022/08/28 09:29:00;;;;;;;8.73;3.90;;;;;;;;;;4949536;28;20645;-73
2022/08/28 09:31:31;;;;;;;8.13;3.73;;;;;;;;;;4946579;28;20227;-74
2022/08/28 09:34:16;;;;;;;9.03;4.07;;;;;;;;;;4947413;28;20693;-73
2022/08/28 09:36:45;;;;;;;10.93;3.50;;;;;;;;;;4948251;28;20214;-73
2022/08/28 09:39:17;;;;;;;10.30;4.10;;;;;;;;;;4943673;28;20215;-72
2022/08/28 09:44:49;;;;;;;10.53;4.30;;;;;;;;;;4944701;29;20676;-72
2022/08/28 09:47:38;;;;;;;7.87;3.67;;;;;;;;;;4947362;28;20711;-73
2022/08/28 09:50:30;;;;;;;9.90;4.27;;;;;;;;;;4945059;28;20225;-73
2022/08/28 09:53:00;;;;;;;10.53;3.83;;;;;;;;;;4934438;29;20688;-73
2022/08/28 09:55:36;;;;;;;11.33;4.13;;;;;;;;;;4945259;29;20700;-73
2022/08/28 09:58:04;;;;;;;9.33;3.77;;;;;;;;;;4941611;29;20340;-73
2022/08/28 10:00:34;;;;;;;10.53;4.30;;;;;;;;;;4943944;28;20226;-73
2022/08/28 10:03:05;;;;;;;8.60;3.73;;;;;;;;;;4943773;29;20325;-72
2022/08/28 10:05:42;;;;;;;10.60;4.37;;;;;;;;;;4944433;28;20559;-73
2022/08/28 10:08:22;;;;;;;10.40;3.70;;;;;;;;;;4945838;29;20222;-72
2022/08/28 10:10:52;;;;;;;10.80;3.77;;;;;;;;;;4945432;28;20241;-72
2022/08/28 10:13:22;;;;;;;8.83;3.63;;;;;;;;;;4943382;29;20210;-72
2022/08/28 10:15:57;;;;;;;9.03;4.03;;;;;;;;;;4944476;29;20210;-72
2022/08/28 10:18:34;;;;;;;11.03;3.73;;;;;;;;;;4943823;29;20206;-72
2022/08/28 10:21:09;;;;;;;15.20;3.90;;;;;;;;;;4944032;28;20424;-72
2022/08/28 10:23:42;;;;;;;9.57;3.27;;;;;;;;;;4946295;29;20202;-73
2022/08/28 10:26:17;;;;;;;7.03;2.70;;;;;;;;;;4942361;29;20285;-72
2022/08/28 10:28:49;;;;;;;10.13;3.33;;;;;;;;;;4940544;29;20218;-72
2022/08/28 10:31:19;;;;;;;11.00;3.53;;;;;;;;;;4943430;28;20223;-72
2022/08/28 10:33:53;;;;;;;9.47;3.30;;;;;;;;;;4943590;28;20218;-72
2022/08/28 10:36:24;;;;;;;9.10;3.20;;;;;;;;;;4945697;29;20643;-73
2022/08/28 10:39:00;;;;;;;8.80;3.20;;;;;;;;;;4946767;28;20615;-72
2022/08/28 10:41:30;;;;;;;10.23;3.00;;;;;;;;;;4945672;28;20237;-72
2022/08/28 10:44:00;;;;;;;10.50;3.10;;;;;;;;;;4942809;28;20202;-72
2022/08/28 10:46:30;;;;;;;12.10;3.23;;;;;;;;;;4948169;28;20681;-72
2022/08/28 10:49:00;;;;;;;8.60;3.33;;;;;;;;;;4942397;28;20612;-72
2022/08/28 10:51:31;;;;;;;7.83;3.13;;;;;;;;;;4944032;28;20228;-72
2022/08/28 10:54:03;;;;;;;11.90;2.97;;;;;;;;;;4943445;29;20310;-73
2022/08/28 10:56:35;;;;;;;11.17;2.90;;;;;;;;;;4942346;29;20207;-72
2022/08/28 10:59:02;;;;;;;6.37;2.80;;;;;;;;;;4944182;29;20215;-72
2022/08/28 11:01:31;;;;;;;11.63;3.10;;;;;;;;;;4943375;28;20237;-72
2022/08/28 11:04:00;;;;;;;8.17;3.10;;;;;;;;;;4941202;29;20647;-73
2022/08/28 11:06:34;;;;;;;11.13;3.40;;;;;;;;;;4944770;29;20226;-73
2022/08/28 11:09:23;;;;;;;7.13;2.90;;;;;;;;;;4945936;29;20769;-73
2022/08/28 11:11:51;;;;;;;7.97;2.77;;;;;;;;;;4948713;28;20826;-73
2022/08/28 11:14:33;;;;;;;7.13;3.10;;;;;;;;;;4945784;29;20290;-72
2022/08/28 11:17:01;;;;;;;7.43;2.83;;;;;;;;;;4947261;29;20213;-73
2022/08/28 11:19:47;;;;;;;14.33;3.00;;;;;;;;;;4949145;28;20227;-72
2022/08/28 11:22:17;;;;;;;9.77;2.70;;;;;;;;;;4944796;29;20214;-72
2022/08/28 11:24:48;;;;;;;8.00;2.80;;;;;;;;;;4945300;29;20585;-73
2022/08/28 11:27:18;;;;;;;9.23;3.07;;;;;;;;;;4945779;29;20310;-72
2022/08/28 11:30:00;;;;;;;7.83;2.73;;;;;;;;;;4947791;28;20204;-73
2022/08/28 11:32:37;;;;;;;9.90;2.93;;;;;;;;;;4944100;29;20241;-73
2022/08/28 11:35:06;;;;;;;12.90;2.90;;;;;;;;;;4946580;29;20206;-72
2022/08/28 11:37:40;;;;;;;6.47;2.40;;;;;;;;;;4946069;29;20285;-72
2022/08/28 11:40:19;;;;;;;7.63;2.57;;;;;;;;;;4943755;28;20230;-72
2022/08/28 11:42:47;;;;;;;9.20;2.63;;;;;;;;;;4945956;29;20269;-72
2022/08/28 11:45:19;;;;;;;9.80;3.23;;;;;;;;;;4949463;29;20218;-73
2022/08/28 11:47:51;;;;;;;7.17;2.60;;;;;;;;;;4943553;29;20657;-72
2022/08/28 11:50:23;;;;;;;7.53;2.43;;;;;;;;;;4944661;29;20233;-73
2022/08/28 11:52:56;;;;;;;6.90;2.60;;;;;;;;;;4948974;29;20293;-72
2022/08/28 11:55:28;;;;;;;6.37;2.20;;;;;;;;;;4945460;29;20290;-72
2022/08/28 11:58:02;;;;;;;8.80;2.77;;;;;;;;;;4945620;29;20205;-73
2022/08/28 12:00:37;;;;;;;9.20;2.67;;;;;;;;;;4940886;28;20282;-73
2022/08/28 12:03:10;;;;;;;7.27;2.20;;;;;;;;;;4949648;29;20239;-72
2022/08/28 12:05:40;;;;;;;5.70;2.37;;;;;;;;;;4944767;29;20202;-73
2022/08/28 12:08:09;;;;;;;10.93;2.43;;;;;;;;;;4945023;29;20216;-72
2022/08/28 12:10:52;;;;;;;8.07;2.33;;;;;;;;;;4945909;28;20661;-73
2022/08/28 12:13:34;;;;;;;8.00;2.50;;;;;;;;;;4942045;28;20202;-72
2022/08/28 12:16:06;;;;;;;8.00;2.53;;;;;;;;;;4946969;29;20242;-72
2022/08/28 12:18:51;;;;;;;5.93;2.60;;;;;;;;;;4942923;29;20207;-72
2022/08/28 12:21:21;;;;;;;9.23;2.73;;;;;;;;;;4946486;28;20680;-73
2022/08/28 12:23:57;;;;;;;10.73;2.10;;;;;;;;;;4946641;29;20228;-73
2022/08/28 12:26:27;;;;;;;4.97;2.27;;;;;;;;;;4944348;29;20281;-73
2022/08/28 12:28:56;;;;;;;8.30;2.30;;;;;;;;;;4946803;29;21746;-73
2022/08/28 12:34:26;;;;;;;6.40;2.07;;;;;;;;;;4944111;28;20210;-73
2022/08/28 12:36:57;;;;;;;14.57;2.43;;;;;;;;;;4940950;29;20642;-72
2022/08/28 12:39:27;;;;;;;5.93;1.90;;;;;;;;;;4941814;29;20286;-73
2022/08/28 12:41:56;;;;;;;4.83;1.87;;;;;;;;;;4941646;29;20232;-73
2022/08/28 12:44:24;;;;;;;4.97;1.80;;;;;;;;;;4938390;29;20662;-72
2022/08/28 12:46:54;;;;;;;9.33;2.17;;;;;;;;;;4942523;28;20735;-73
2022/08/28 12:49:33;;;;;;;7.07;1.80;;;;;;;;;;4938980;29;20668;-73
2022/08/28 12:52:11;;;;;;;9.10;2.00;;;;;;;;;;4941950;29;20898;-72
2022/08/28 12:54:38;;;;;;;9.17;2.00;;;;;;;;;;4944182;29;20210;-72
2022/08/28 12:57:18;;;;;;;6.53;2.37;;;;;;;;;;4943522;29;20213;-72
2022/08/28 12:59:46;;;;;;;6.37;2.33;;;;;;;;;;4945563;29;20208;-72
2022/08/28 13:02:20;;;;;;;5.33;2.00;;;;;;;;;;4941892;29;20223;-73
2022/08/28 13:04:52;;;;;;;10.03;2.30;;;;;;;;;;4937320;29;20220;-73
2022/08/28 13:07:24;;;;;;;5.17;2.23;;;;;;;;;;4940264;29;20297;-72
2022/08/28 13:09:52;;;;;;;6.20;1.80;;;;;;;;;;4938593;29;20379;-73
2022/08/28 13:12:23;;;;;;;6.23;2.00;;;;;;;;;;4941946;28;20626;-73
2022/08/28 13:14:51;;;;;;;4.10;2.00;;;;;;;;;;4947873;29;20203;-73
2022/08/28 13:17:38;;;;;;;5.27;1.60;;;;;;;;;;4947107;29;20206;-73
2022/08/28 13:26:26;;;;;;;5.87;2.20;;;;;;;;;;5016691;23;20709;-83
2022/08/28 13:28:58;;;;;;;4.80;2.17;;;;;;;;;;4983660;28;20206;-83
2022/08/28 13:31:28;;;;;;;3.97;1.87;;;;;;;;;;4970870;28;20234;-84
2022/08/28 13:34:09;;;;;;;5.43;1.30;;;;;;;;;;4961931;29;20310;-82
2022/08/28 13:36:40;;;;;;;3.53;1.30;;;;;;;;;;4956415;29;20219;-83
2022/08/28 13:42:15;;;;;;;5.17;1.80;;;;;;;;;;4969206;23;20607;-79
2022/08/28 13:44:47;;;;;;;6.23;1.43;;;;;;;;;;4960811;28;20309;-76
2022/08/28 13:47:15;;;;;;;4.03;1.10;;;;;;;;;;4965905;28;20302;-77
2022/08/28 13:49:42;;;;;;;5.03;1.17;;;;;;;;;;4956708;28;20690;-76
2022/08/28 13:52:09;;;;;;;3.97;1.33;;;;;;;;;;4956493;28;20673;-75
2022/08/28 13:54:37;;;;;;;8.57;1.30;;;;;;;;;;4960067;28;20587;-78
2022/08/28 13:57:06;;;;;;;3.37;1.10;;;;;;;;;;4955625;28;20206;-76
2022/08/28 13:59:33;;;;;;;3.77;1.47;;;;;;;;;;4960422;28;20204;-77
2022/08/28 14:04:50;;;;;;;3.03;1.40;;;;;;;;;;4961778;28;20240;-77
2022/08/28 14:07:17;;;;;;;3.53;1.27;;;;;;;;;;4962062;28;20613;-77
2022/08/28 14:09:48;;;;;;;5.13;1.40;;;;;;;;;;4960328;28;20299;-76
2022/08/28 14:12:15;;;;;;;7.23;1.57;;;;;;;;;;4961737;28;20584;-78
2022/08/28 14:14:42;;;;;;;5.10;1.33;;;;;;;;;;4955952;28;20232;-77
2022/08/28 14:17:11;;;;;;;5.20;1.40;;;;;;;;;;4957543;28;20573;-76
2022/08/28 14:19:38;;;;;;;4.97;1.60;;;;;;;;;;4954918;28;20214;-77
2022/08/28 14:22:06;;;;;;;2.40;1.27;;;;;;;;;;4962427;28;20305;-77
2022/08/28 14:24:36;;;;;;;2.83;1.27;;;;;;;;;;4965320;28;20698;-78
2022/08/28 14:27:04;;;;;;;4.97;1.23;;;;;;;;;;4960282;28;20261;-77
2022/08/28 14:29:33;;;;;;;4.67;1.30;;;;;;;;;;4963769;28;20203;-76
2022/08/28 14:32:02;;;;;;;5.73;1.50;;;;;;;;;;4961917;28;20217;-78
2022/08/28 14:34:33;;;;;;;4.97;1.33;;;;;;;;;;4971577;28;20293;-77
2022/08/28 14:37:00;;;;;;;3.70;1.30;;;;;;;;;;4958189;28;20209;-77
2022/08/28 14:39:29;;;;;;;4.83;1.40;;;;;;;;;;4961694;28;20260;-77
2022/08/28 14:41:59;;;;;;;5.80;1.20;;;;;;;;;;4957224;28;20222;-77
2022/08/28 14:44:26;;;;;;;5.13;1.10;;;;;;;;;;4955414;28;20809;-77
2022/08/28 14:46:53;;;;;;;4.37;1.23;;;;;;;;;;4958047;28;20297;-76
2022/08/28 14:49:22;;;;;;;3.40;1.20;;;;;;;;;;4957022;28;21941;-76
2022/08/28 14:51:51;;;;;;;5.50;1.40;;;;;;;;;;4952551;28;20215;-77
2022/08/28 14:54:19;;;;;;;4.83;1.40;;;;;;;;;;4954818;28;20206;-77
2022/08/28 14:56:47;;;;;;;3.57;1.23;;;;;;;;;;4955976;28;20202;-77
2022/08/28 14:59:19;;;;;;;3.53;1.23;;;;;;;;;;4955869;28;20241;-78
2022/08/28 15:01:49;;;;;;;4.37;1.30;;;;;;;;;;4956849;28;20206;-78
2022/08/28 15:04:21;;;;;;;4.00;1.07;;;;;;;;;;4960360;28;20490;-78
2022/08/28 15:06:49;;;;;;;4.27;1.47;;;;;;;;;;4959411;28;20240;-77
2022/08/28 15:09:18;;;;;;;3.97;1.30;;;;;;;;;;4961386;28;20265;-76
2022/08/28 15:11:45;;;;;;;4.40;1.17;;;;;;;;;;4963566;28;20202;-79
2022/08/28 15:14:13;;;;;;;4.67;1.00;;;;;;;;;;4970274;28;20641;-77
2022/08/28 15:16:42;;;;;;;3.13;1.40;;;;;;;;;;4960901;28;20238;-78
2022/08/28 15:19:11;;;;;;;4.40;1.07;;;;;;;;;;4961151;28;20284;-77